createdAt,value
2022-10-17T00:00:31.014Z,82.90
2022-10-17T00:02:57.757Z,83.20
2022-10-17T00:05:25.031Z,86.90
2022-10-17T00:07:52.410Z,85.60
2022-10-17T00:10:20.280Z,83.20
2022-10-17T00:12:47.802Z,85.90
2022-10-17T00:15:19.436Z,85.80
2022-10-17T00:17:46.133Z,83.60
2022-10-17T00:20:13.517Z,83.60
2022-10-17T00:22:40.251Z,86.50
2022-10-17T00:25:07.200Z,86.20
2022-10-17T00:27:38.528Z,86.30
2022-10-17T00:30:07.664Z,83.70
2022-10-17T00:32:34.391Z,84.20
2022-10-17T00:37:29.709Z,83.70
2022-10-17T00:39:56.414Z,84.10
2022-10-17T00:42:25.120Z,86.90
2022-10-17T00:45:05.776Z,87.30
2022-10-17T00:47:33.097Z,88.10
2022-10-17T00:52:32.898Z,88.00
2022-10-17T00:55:18.068Z,87.10
2022-10-17T00:57:46.107Z,88.70
2022-10-17T01:00:15.180Z,84.90
2022-10-17T01:05:09.629Z,87.40
2022-10-17T01:07:38.044Z,84.90
2022-10-17T01:10:06.210Z,87.30
2022-10-17T01:12:36.966Z,87.40
2022-10-17T01:15:06.439Z,88.30
2022-10-17T01:17:48.622Z,87.30
2022-10-17T01:20:50.180Z,88.10
2022-10-17T01:23:54.315Z,88.80
2022-10-17T01:26:54.836Z,84.60
2022-10-17T01:29:40.136Z,88.80
2022-10-17T01:32:15.029Z,88.80
2022-10-17T01:35:07.958Z,87.40
2022-10-17T01:40:28.113Z,88.20
2022-10-17T01:43:05.110Z,89.10
2022-10-17T01:45:41.127Z,87.90
2022-10-17T01:48:15.176Z,85.10
2022-10-17T01:50:46.441Z,88.80
2022-10-17T01:53:34.731Z,88.30
2022-10-17T01:56:06.871Z,88.20
2022-10-17T01:58:41.330Z,85.60
2022-10-17T02:01:09.906Z,88.20
2022-10-17T02:03:37.952Z,88.20
2022-10-17T02:06:06.452Z,85.70
2022-10-17T02:08:46.963Z,88.90
2022-10-17T02:11:20.835Z,85.80
2022-10-17T02:14:06.787Z,88.60
2022-10-17T02:16:42.711Z,88.70
2022-10-17T02:19:09.697Z,88.50
2022-10-17T02:22:01.350Z,85.50
2022-10-17T02:24:36.027Z,88.30
2022-10-17T02:27:14.391Z,85.90
2022-10-17T02:29:53.903Z,88.90
2022-10-17T02:32:54.644Z,89.80
2022-10-17T02:35:25.297Z,88.60
2022-10-17T02:37:53.294Z,86.20
2022-10-17T02:40:24.190Z,88.60
2022-10-17T02:42:54.381Z,87.50
2022-10-17T02:45:24.160Z,89.50
2022-10-17T02:47:55.562Z,89.90
2022-10-17T02:50:33.278Z,89.10
2022-10-17T02:53:08.535Z,89.00
2022-10-17T02:55:43.497Z,89.80
2022-10-17T02:58:23.988Z,89.10
2022-10-17T03:00:51.611Z,86.50
2022-10-17T03:03:30.792Z,87.10
2022-10-17T03:08:28.372Z,90.20
2022-10-17T03:10:56.278Z,87.20
2022-10-17T03:13:23.377Z,90.00
2022-10-17T03:15:50.236Z,90.30
2022-10-17T03:18:16.986Z,89.60
2022-10-17T03:20:44.449Z,90.10
2022-10-17T03:25:38.364Z,90.30
2022-10-17T03:28:05.566Z,90.90
2022-10-17T03:30:33.501Z,91.00
2022-10-17T03:33:00.530Z,90.90
2022-10-17T03:35:27.636Z,90.20
2022-10-17T03:37:55.768Z,90.20
2022-10-17T03:40:23.727Z,90.30
2022-10-17T03:42:50.884Z,90.10
2022-10-17T03:45:17.903Z,88.20
2022-10-17T03:47:45.946Z,90.40
2022-10-17T03:50:12.716Z,90.10
2022-10-17T03:52:40.200Z,90.70
2022-10-17T03:55:07.184Z,90.10
2022-10-17T03:57:35.950Z,87.50
2022-10-17T04:00:05.298Z,88.00
2022-10-17T04:02:40.972Z,87.90
2022-10-17T04:05:10.813Z,90.30
2022-10-17T04:07:37.654Z,90.90
2022-10-17T04:10:05.657Z,90.40
2022-10-17T04:12:32.714Z,88.20
2022-10-17T04:14:59.664Z,90.20
2022-10-17T04:17:26.559Z,90.20
2022-10-17T04:19:53.222Z,90.20
2022-10-17T04:22:19.890Z,90.70
2022-10-17T04:24:46.854Z,91.00
2022-10-17T04:27:26.830Z,90.20
2022-10-17T04:35:00.363Z,90.50
2022-10-17T04:37:29.535Z,90.70
2022-10-17T04:39:57.218Z,90.40
2022-10-17T04:42:23.961Z,88.40
2022-10-17T04:44:52.993Z,90.80
2022-10-17T04:47:19.771Z,90.40
2022-10-17T04:49:46.490Z,90.40
2022-10-17T04:52:15.319Z,88.60
2022-10-17T04:54:44.051Z,90.20
2022-10-17T04:57:13.400Z,90.90
2022-10-17T04:59:41.794Z,88.50
2022-10-17T05:02:20.891Z,90.70
2022-10-17T05:04:47.652Z,88.60
2022-10-17T05:07:15.338Z,90.30
2022-10-17T05:09:47.600Z,90.90
2022-10-17T05:12:15.250Z,89.00
2022-10-17T05:14:44.727Z,88.20
2022-10-17T05:17:11.330Z,87.90
2022-10-17T05:19:38.529Z,90.20
2022-10-17T05:22:06.935Z,90.30
2022-10-17T05:24:33.712Z,90.40
2022-10-17T05:27:00.523Z,90.90
2022-10-17T05:29:27.183Z,88.70
2022-10-17T05:34:29.039Z,90.40
2022-10-17T05:41:52.430Z,88.30
2022-10-17T05:44:19.146Z,90.40
2022-10-17T05:46:51.214Z,88.80
2022-10-17T05:49:32.190Z,91.00
2022-10-17T05:52:00.201Z,90.50
2022-10-17T05:54:27.629Z,88.80
2022-10-17T05:56:55.687Z,90.30
2022-10-17T05:59:27.004Z,90.40
2022-10-17T06:01:58.077Z,90.20
2022-10-17T06:04:27.673Z,90.40
2022-10-17T06:06:56.158Z,90.20
2022-10-17T06:09:23.834Z,90.60
2022-10-17T06:11:53.114Z,90.10
2022-10-17T06:14:20.243Z,88.20
2022-10-17T06:16:50.088Z,90.40
2022-10-17T06:19:16.759Z,90.40
2022-10-17T06:21:43.484Z,88.70
2022-10-17T06:24:15.149Z,90.40
2022-10-17T06:26:43.057Z,88.70
2022-10-17T06:29:12.190Z,90.80
2022-10-17T06:34:13.338Z,88.30
2022-10-17T06:36:40.727Z,90.40
2022-10-17T06:39:08.547Z,88.90
2022-10-17T06:41:58.319Z,90.40
2022-10-17T06:44:40.289Z,90.70
2022-10-17T06:47:22.135Z,90.40
2022-10-17T06:49:50.969Z,88.90
2022-10-17T06:52:29.545Z,88.50
2022-10-17T06:55:16.903Z,90.60
2022-10-17T06:57:55.740Z,88.70
2022-10-17T07:00:41.551Z,90.00
2022-10-17T07:03:10.322Z,90.30
2022-10-17T07:05:36.935Z,88.70
2022-10-17T07:08:05.266Z,90.80
2022-10-17T07:10:37.989Z,90.20
2022-10-17T07:13:06.746Z,90.30
2022-10-17T07:15:34.858Z,90.20
2022-10-17T07:20:29.527Z,87.50
2022-10-17T07:22:56.580Z,90.90
2022-10-17T07:25:24.072Z,90.20
2022-10-17T07:27:58.900Z,90.10
2022-10-17T07:30:25.535Z,88.40
2022-10-17T07:33:01.508Z,88.20
2022-10-17T07:35:28.144Z,88.80
2022-10-17T07:37:55.160Z,88.10
2022-10-17T07:40:21.867Z,88.30
2022-10-17T07:42:48.589Z,87.90
2022-10-17T07:45:15.841Z,90.20
2022-10-17T07:47:43.378Z,88.40
2022-10-17T07:50:13.119Z,90.30
2022-10-17T07:52:39.829Z,90.50
2022-10-17T07:55:07.820Z,87.90
2022-10-17T07:57:34.487Z,90.40
2022-10-17T08:00:01.099Z,87.80
2022-10-17T08:02:28.419Z,88.30
2022-10-17T08:04:55.389Z,90.00
2022-10-17T08:07:25.498Z,88.80
2022-10-17T08:09:55.974Z,88.20
2022-10-17T08:12:22.847Z,88.20
2022-10-17T08:14:49.502Z,90.80
2022-10-17T08:17:16.187Z,90.20
2022-10-17T08:19:42.848Z,90.30
2022-10-17T08:22:09.543Z,90.10
2022-10-17T08:24:36.920Z,88.70
2022-10-17T08:29:39.121Z,90.50
2022-10-17T08:32:09.039Z,90.50
2022-10-17T08:34:36.539Z,91.10
2022-10-17T08:37:03.374Z,91.40
2022-10-17T08:39:30.058Z,89.70
2022-10-17T08:42:05.682Z,91.30
2022-10-17T08:44:50.330Z,91.60
2022-10-17T08:47:26.246Z,89.70
2022-10-17T08:49:57.937Z,91.30
2022-10-17T08:52:39.607Z,90.10
2022-10-17T08:55:36.956Z,89.80
2022-10-17T08:58:13.998Z,90.00
2022-10-17T09:00:46.196Z,90.20
2022-10-17T09:03:36.616Z,90.00
2022-10-17T09:06:11.547Z,89.80
2022-10-17T09:09:16.782Z,90.40
2022-10-17T09:12:13.967Z,90.30
2022-10-17T09:15:01.762Z,91.20
2022-10-17T09:17:31.289Z,91.60
2022-10-17T09:20:03.946Z,90.40
2022-10-17T09:22:37.529Z,90.40
2022-10-17T09:25:09.508Z,91.20
2022-10-17T09:27:44.495Z,91.30
2022-10-17T09:30:50.779Z,91.30
2022-10-17T09:33:28.489Z,90.50
2022-10-17T09:36:14.285Z,91.10
2022-10-17T09:38:50.317Z,90.30
2022-10-17T09:44:40.494Z,90.30
2022-10-17T09:47:18.864Z,91.30
2022-10-17T09:49:47.189Z,91.40
2022-10-17T09:52:18.497Z,91.40
2022-10-17T09:54:57.143Z,91.50
2022-10-17T09:57:24.010Z,90.60
2022-10-17T09:59:59.404Z,90.70
2022-10-17T10:02:28.872Z,91.70
2022-10-17T10:05:06.426Z,90.60
2022-10-17T10:07:36.357Z,90.50
2022-10-17T10:10:06.274Z,91.70
2022-10-17T10:12:39.007Z,90.40
2022-10-17T10:15:30.935Z,91.50
2022-10-17T10:17:57.618Z,91.30
2022-10-17T10:20:26.303Z,91.80
2022-10-17T10:23:14.226Z,91.30
2022-10-17T10:25:55.091Z,90.40
2022-10-17T10:28:25.928Z,91.60
2022-10-17T10:30:53.518Z,90.50
2022-10-17T10:33:23.412Z,91.30
2022-10-17T10:36:01.714Z,91.70
2022-10-17T10:38:29.937Z,91.90
2022-10-17T10:41:03.871Z,90.60
2022-10-17T10:43:46.280Z,91.50
2022-10-17T10:46:27.923Z,91.40
2022-10-17T10:49:03.103Z,90.40
2022-10-17T10:51:35.306Z,90.70
2022-10-17T10:54:05.728Z,91.30
2022-10-17T10:56:53.459Z,91.50
2022-10-17T10:59:31.680Z,91.60
2022-10-17T11:02:22.354Z,90.60
2022-10-17T11:05:18.599Z,92.00
2022-10-17T11:08:05.120Z,90.20
2022-10-17T11:10:44.369Z,91.10
2022-10-17T11:13:14.752Z,91.70
2022-10-17T11:15:50.132Z,90.30
2022-10-17T11:18:23.127Z,91.10
2022-10-17T11:21:05.971Z,90.00
2022-10-17T11:23:47.184Z,90.80
2022-10-17T11:26:26.676Z,90.90
2022-10-17T11:28:54.784Z,91.10
2022-10-17T11:31:24.393Z,89.60
2022-10-17T11:33:59.664Z,89.80
2022-10-17T11:36:29.923Z,90.00
2022-10-17T11:39:13.828Z,91.00
2022-10-17T11:41:53.288Z,90.80
2022-10-17T11:44:32.008Z,90.30
2022-10-17T11:47:32.275Z,90.00
2022-10-17T11:53:22.763Z,91.80
2022-10-17T11:55:52.507Z,90.20
2022-10-17T11:58:41.877Z,90.10
2022-10-17T12:01:30.219Z,90.20
2022-10-17T12:04:07.694Z,91.30
2022-10-17T12:07:12.532Z,91.80
2022-10-17T12:10:16.609Z,90.50
2022-10-17T12:12:43.383Z,90.60
2022-10-17T12:15:25.251Z,90.30
2022-10-17T12:18:02.905Z,90.10
2022-10-17T12:20:37.432Z,90.00
2022-10-17T12:23:12.377Z,89.90
2022-10-17T12:26:03.257Z,90.00
2022-10-17T12:28:42.838Z,89.50
2022-10-17T12:31:29.686Z,89.30
2022-10-17T12:34:01.928Z,89.30
2022-10-17T12:36:28.717Z,89.40
2022-10-17T12:39:04.162Z,89.20
2022-10-17T12:41:39.702Z,90.40
2022-10-17T12:44:21.557Z,89.20
2022-10-17T12:47:07.833Z,88.80
2022-10-17T12:49:37.907Z,89.00
2022-10-17T12:52:32.479Z,89.00
2022-10-17T12:55:14.216Z,90.30
2022-10-17T12:57:56.689Z,89.10
2022-10-17T13:00:33.474Z,89.00
2022-10-17T13:03:10.731Z,89.10
2022-10-17T13:05:40.975Z,89.20
2022-10-17T13:08:15.025Z,88.60
2022-10-17T13:10:46.306Z,90.50
2022-10-17T13:13:16.824Z,89.40
2022-10-17T13:15:52.366Z,89.20
2022-10-17T13:18:25.224Z,89.50
2022-10-17T13:21:02.362Z,91.20
2022-10-17T13:23:31.957Z,90.90
2022-10-17T13:26:15.996Z,91.20
2022-10-17T13:28:44.075Z,91.00
2022-10-17T13:31:38.373Z,90.80
2022-10-17T13:34:14.866Z,90.60
2022-10-17T13:36:47.838Z,89.00
2022-10-17T13:39:23.157Z,88.90
2022-10-17T13:41:59.462Z,88.90
2022-10-17T13:44:28.887Z,89.70
2022-10-17T13:46:55.605Z,88.30
2022-10-17T13:49:36.934Z,88.10
2022-10-17T13:52:06.237Z,88.20
2022-10-17T13:54:42.512Z,88.50
2022-10-17T13:57:25.318Z,88.40
2022-10-17T13:59:56.764Z,88.30
2022-10-17T14:02:27.551Z,88.20
2022-10-17T14:05:18.349Z,87.30
2022-10-17T14:08:12.106Z,90.10
2022-10-17T14:10:42.503Z,88.60
2022-10-17T14:13:23.830Z,90.10
2022-10-17T14:15:51.829Z,89.90
2022-10-17T14:18:24.266Z,88.20
2022-10-17T14:23:41.732Z,87.90
2022-10-17T14:26:19.627Z,88.00
2022-10-17T14:29:04.721Z,88.10
2022-10-17T14:31:34.398Z,88.20
2022-10-17T14:34:04.038Z,88.40
2022-10-17T14:36:52.042Z,88.70
2022-10-17T14:39:22.091Z,88.60
2022-10-17T14:41:50.294Z,89.30
2022-10-17T14:44:27.323Z,88.10
2022-10-17T14:47:05.957Z,86.90
2022-10-17T14:49:40.872Z,85.00
2022-10-17T14:52:15.148Z,87.00
2022-10-17T14:54:49.255Z,83.70
2022-10-17T14:57:23.947Z,84.10
2022-10-17T14:59:55.118Z,83.40
2022-10-17T15:02:24.149Z,83.40
2022-10-17T15:04:51.032Z,83.50
2022-10-17T15:07:18.531Z,84.20
2022-10-17T15:09:47.572Z,84.70
2022-10-17T15:12:16.825Z,84.50
2022-10-17T15:14:44.537Z,84.20
2022-10-17T15:17:31.236Z,85.20
2022-10-17T15:19:58.840Z,85.70
2022-10-17T15:22:25.605Z,86.70
2022-10-17T15:24:52.283Z,85.90
2022-10-17T15:27:20.137Z,85.60
2022-10-17T15:29:47.649Z,85.10
2022-10-17T15:32:14.948Z,84.50
2022-10-17T15:34:41.939Z,84.20
2022-10-17T15:37:20.640Z,84.20
2022-10-17T15:39:57.805Z,84.10
2022-10-17T15:42:29.583Z,84.10
2022-10-17T15:44:57.431Z,84.00
2022-10-17T15:47:28.481Z,84.20
2022-10-17T15:49:55.724Z,84.40
2022-10-17T15:52:23.520Z,84.40
2022-10-17T15:54:50.394Z,84.90
2022-10-17T15:57:27.438Z,85.10
2022-10-17T15:59:55.471Z,85.20
2022-10-17T16:02:23.687Z,85.60
2022-10-17T16:04:51.438Z,85.80
2022-10-17T16:07:19.171Z,87.20
2022-10-17T16:09:46.273Z,86.20
2022-10-17T16:12:28.864Z,86.20
2022-10-17T16:14:55.526Z,88.20
2022-10-17T16:17:22.166Z,86.60
2022-10-17T16:19:48.802Z,86.50
2022-10-17T16:22:32.451Z,86.80
2022-10-17T16:25:07.440Z,88.90
2022-10-17T16:27:34.182Z,87.10
2022-10-17T16:30:01.296Z,87.40
2022-10-17T16:32:28.139Z,87.50
2022-10-17T16:34:55.134Z,87.50
2022-10-17T16:37:21.674Z,87.60
2022-10-17T16:39:53.551Z,89.10
2022-10-17T16:42:20.814Z,87.70
2022-10-17T16:44:48.931Z,88.00
2022-10-17T16:47:16.523Z,88.00
2022-10-17T16:49:45.305Z,90.10
2022-10-17T16:52:12.641Z,90.70
2022-10-17T16:54:39.377Z,88.20
2022-10-17T16:57:05.982Z,88.40
2022-10-17T16:59:32.656Z,90.30
2022-10-17T17:01:59.293Z,90.60
2022-10-17T17:04:26.073Z,90.00
2022-10-17T17:06:52.691Z,88.40
2022-10-17T17:09:19.372Z,90.40
2022-10-17T17:11:46.030Z,88.40
2022-10-17T17:14:13.035Z,90.10
2022-10-17T17:16:39.798Z,90.20
2022-10-17T17:19:07.715Z,88.60
2022-10-17T17:21:34.996Z,90.20
2022-10-17T17:24:02.987Z,90.60
2022-10-17T17:26:32.026Z,88.80
2022-10-17T17:29:00.174Z,88.90
2022-10-17T17:31:29.548Z,88.90
2022-10-17T17:33:56.877Z,90.60
2022-10-17T17:36:29.444Z,90.40
2022-10-17T17:39:01.453Z,90.70
2022-10-17T17:41:28.547Z,89.00
2022-10-17T17:43:55.855Z,90.50
2022-10-17T17:46:23.870Z,88.70
2022-10-17T17:48:51.716Z,90.60
2022-10-17T17:51:24.295Z,90.60
2022-10-17T17:53:53.993Z,89.30
2022-10-17T17:56:23.422Z,89.30
2022-10-17T17:58:55.638Z,89.40
2022-10-17T18:01:24.295Z,89.30
2022-10-17T18:03:52.888Z,89.60
2022-10-17T18:06:21.265Z,89.50
2022-10-17T18:08:51.568Z,90.50
2022-10-17T18:11:21.203Z,90.80
2022-10-17T18:13:57.229Z,91.20
2022-10-17T18:16:25.253Z,90.80
2022-10-17T18:18:52.012Z,89.60
2022-10-17T18:21:18.766Z,90.80
2022-10-17T18:23:46.206Z,90.60
2022-10-17T18:26:14.365Z,89.50
2022-10-17T18:31:12.093Z,90.70
2022-10-17T18:33:39.316Z,89.90
2022-10-17T18:36:09.996Z,90.70
2022-10-17T18:38:37.709Z,90.70
2022-10-17T18:41:12.537Z,89.90
2022-10-17T18:43:40.965Z,89.80
2022-10-17T18:46:13.894Z,89.90
2022-10-17T18:48:44.489Z,90.80
2022-10-17T18:51:13.031Z,89.90
2022-10-17T18:53:41.690Z,89.90
2022-10-17T18:56:09.351Z,90.00
2022-10-17T18:58:37.431Z,90.90
2022-10-17T19:01:06.434Z,90.00
2022-10-17T19:03:33.343Z,90.00
2022-10-17T19:06:07.173Z,90.10
2022-10-17T19:08:34.885Z,90.00
2022-10-17T19:11:06.859Z,90.00
2022-10-17T19:13:34.009Z,90.00
2022-10-17T19:16:04.259Z,90.80
2022-10-17T19:18:30.984Z,90.00
2022-10-17T19:21:02.892Z,90.00
2022-10-17T19:23:30.446Z,90.10
2022-10-17T19:26:07.971Z,90.10
2022-10-17T19:28:36.147Z,91.20
2022-10-17T19:31:03.158Z,91.10
2022-10-17T19:33:31.665Z,90.10
2022-10-17T19:36:01.043Z,90.20
2022-10-17T19:38:28.121Z,90.20
2022-10-17T19:40:54.841Z,90.20
2022-10-17T19:43:21.827Z,90.20
2022-10-17T19:45:59.929Z,91.30
2022-10-17T19:48:27.224Z,91.70
2022-10-17T19:50:54.087Z,91.10
2022-10-17T19:53:23.354Z,91.10
2022-10-17T19:55:50.607Z,90.30
2022-10-17T19:58:17.291Z,91.50
2022-10-17T20:00:49.255Z,90.30
2022-10-17T20:03:16.236Z,91.20
2022-10-17T20:05:43.004Z,91.30
2022-10-17T20:08:09.578Z,90.50
2022-10-17T20:10:36.296Z,91.30
2022-10-17T20:13:03.453Z,90.20
2022-10-17T20:15:30.123Z,91.90
2022-10-17T20:17:57.219Z,91.30
2022-10-17T20:20:24.160Z,91.90
2022-10-17T20:22:50.780Z,91.40
2022-10-17T20:25:17.617Z,90.60
2022-10-17T20:27:44.188Z,90.60
2022-10-17T20:30:11.101Z,90.50
2022-10-17T20:32:39.918Z,90.60
2022-10-17T20:35:07.777Z,90.60
2022-10-17T20:37:41.456Z,91.70
2022-10-17T20:40:33.655Z,91.80
2022-10-17T20:42:56.611Z,91.70
2022-10-17T20:45:37.441Z,90.60
2022-10-17T20:48:15.048Z,91.50
2022-10-17T20:50:43.272Z,90.90
2022-10-17T20:53:35.621Z,90.80
2022-10-17T20:56:06.694Z,92.30
2022-10-17T20:58:33.765Z,91.50
2022-10-17T21:01:09.040Z,90.80
2022-10-17T21:03:39.863Z,90.70
2022-10-17T21:06:11.220Z,90.70
2022-10-17T21:08:37.949Z,90.80
2022-10-17T21:11:15.026Z,90.90
2022-10-17T21:13:42.027Z,91.80
2022-10-17T21:16:18.836Z,91.60
2022-10-17T21:18:46.216Z,91.60
2022-10-17T21:21:14.885Z,91.60
2022-10-17T21:23:43.360Z,90.80
2022-10-17T21:26:12.570Z,90.50
2022-10-17T21:28:40.657Z,92.00
2022-10-17T21:31:16.168Z,91.50
2022-10-17T21:33:46.054Z,91.50
2022-10-17T21:36:13.712Z,90.90
2022-10-17T21:38:40.791Z,90.70
2022-10-17T21:41:09.092Z,91.70
2022-10-17T21:43:36.963Z,91.60
2022-10-17T21:46:05.520Z,91.50
2022-10-17T21:48:33.348Z,90.60
2022-10-17T21:51:04.036Z,90.80
2022-10-17T21:53:31.370Z,90.80
2022-10-17T21:56:02.585Z,91.60
2022-10-17T21:58:29.550Z,92.20
2022-10-17T22:01:17.110Z,91.60
2022-10-17T22:03:48.375Z,91.70
2022-10-17T22:06:38.873Z,90.80
2022-10-17T22:09:06.317Z,92.00
2022-10-17T22:11:34.995Z,90.90
2022-10-17T22:14:04.371Z,90.70
2022-10-17T22:16:31.023Z,92.10
2022-10-17T22:19:03.166Z,90.70
2022-10-17T22:21:35.066Z,91.90
2022-10-17T22:24:05.437Z,91.70
2022-10-17T22:26:33.475Z,90.70
2022-10-17T22:29:00.611Z,90.70
2022-10-17T22:31:27.275Z,91.60
2022-10-17T22:36:21.152Z,91.80
2022-10-17T22:38:47.763Z,90.70
2022-10-17T22:41:14.450Z,91.70
2022-10-17T22:43:41.088Z,91.80
2022-10-17T22:46:09.579Z,90.60
2022-10-17T22:48:37.050Z,92.10
2022-10-17T22:51:03.704Z,90.70
2022-10-17T22:53:30.372Z,90.70
2022-10-17T22:56:00.115Z,90.70
2022-10-17T22:58:28.652Z,92.10
2022-10-17T23:00:55.839Z,92.30
2022-10-17T23:03:24.278Z,91.70
2022-10-17T23:05:51.179Z,90.60
2022-10-17T23:08:18.801Z,91.90
2022-10-17T23:10:46.672Z,90.50
2022-10-17T23:13:14.079Z,91.70
2022-10-17T23:15:41.295Z,90.70
2022-10-17T23:18:09.646Z,90.70
2022-10-17T23:20:37.419Z,90.70
2022-10-17T23:23:04.934Z,91.90
2022-10-17T23:25:33.713Z,91.70
2022-10-17T23:30:27.798Z,90.50
2022-10-17T23:32:54.453Z,91.80
2022-10-17T23:35:21.108Z,91.70
2022-10-17T23:37:47.727Z,92.10
2022-10-17T23:40:14.392Z,91.60
2022-10-17T23:42:41.090Z,91.70
2022-10-17T23:45:08.391Z,90.90
2022-10-17T23:47:35.124Z,90.70
2022-10-17T23:50:01.884Z,91.80
2022-10-17T23:52:28.740Z,92.10
2022-10-17T23:54:55.367Z,90.70
2022-10-17T23:57:22.196Z,90.50
2022-10-17T23:59:48.923Z,91.30
